createdAt,value
2018-03-17T00:00:25.734Z,12.98
2018-03-17T00:02:55.178Z,12.81
2018-03-17T00:05:24.440Z,12.96
2018-03-17T00:07:53.482Z,13.08
2018-03-17T00:10:22.403Z,13.07
2018-03-17T00:12:51.333Z,13.11
2018-03-17T00:15:20.713Z,12.96
2018-03-17T00:17:49.945Z,13.08
2018-03-17T00:20:19.165Z,12.93
2018-03-17T00:22:48.190Z,12.92
2018-03-17T00:25:17.784Z,12.91
2018-03-17T00:27:46.855Z,12.87
2018-03-17T00:30:15.971Z,13.03
2018-03-17T00:32:45.037Z,12.99
2018-03-17T00:35:16.041Z,12.85
2018-03-17T00:37:45.239Z,12.84
2018-03-17T00:40:14.554Z,12.92
2018-03-17T00:42:44.647Z,12.93
2018-03-17T00:45:14.314Z,12.79
2018-03-17T00:47:43.328Z,12.81
2018-03-17T00:50:15.255Z,12.81
2018-03-17T00:52:44.950Z,12.80
2018-03-17T00:55:14.577Z,12.74
2018-03-17T00:57:43.517Z,12.67
2018-03-17T01:00:12.288Z,12.69
2018-03-17T01:02:41.599Z,12.84
2018-03-17T01:05:10.515Z,12.55
2018-03-17T01:07:40.187Z,12.62
2018-03-17T01:10:09.459Z,12.70
2018-03-17T01:12:38.452Z,12.60
2018-03-17T01:15:07.766Z,12.33
2018-03-17T01:17:37.194Z,12.55
2018-03-17T01:20:07.416Z,12.63
2018-03-17T01:22:37.786Z,12.66
2018-03-17T01:25:07.728Z,12.77
2018-03-17T01:27:37.253Z,12.72
2018-03-17T01:30:06.703Z,12.61
2018-03-17T01:32:38.312Z,12.53
2018-03-17T01:35:07.421Z,12.53
2018-03-17T01:37:36.582Z,12.36
2018-03-17T01:40:07.175Z,12.24
2018-03-17T01:42:38.440Z,12.34
2018-03-17T01:45:08.043Z,12.38
2018-03-17T01:47:38.364Z,12.36
2018-03-17T01:50:07.215Z,12.17
2018-03-17T01:52:39.747Z,12.33
2018-03-17T01:55:09.144Z,12.37
2018-03-17T01:57:40.029Z,12.39
2018-03-17T02:00:12.556Z,12.29
2018-03-17T02:02:42.600Z,12.22
2018-03-17T02:05:13.575Z,12.30
2018-03-17T02:07:42.831Z,12.21
2018-03-17T02:10:13.361Z,12.28
2018-03-17T02:12:42.279Z,12.31
2018-03-17T02:15:13.476Z,12.17
2018-03-17T02:17:45.765Z,12.18
2018-03-17T02:20:19.046Z,12.18
2018-03-17T02:22:50.418Z,12.24
2018-03-17T02:25:20.459Z,12.31
2018-03-17T02:27:58.491Z,12.24
2018-03-17T02:30:29.431Z,12.35
2018-03-17T02:32:58.606Z,12.40
2018-03-17T02:35:30.443Z,12.20
2018-03-17T02:38:00.658Z,12.32
2018-03-17T02:40:30.405Z,12.32
2018-03-17T02:43:01.800Z,12.43
2018-03-17T02:45:31.577Z,12.44
2018-03-17T02:48:07.123Z,12.42
2018-03-17T02:50:40.140Z,12.27
2018-03-17T02:53:12.875Z,12.22
2018-03-17T02:55:44.044Z,12.28
2018-03-17T02:58:14.908Z,12.30
2018-03-17T03:00:45.817Z,12.22
2018-03-17T03:03:18.691Z,12.17
2018-03-17T03:05:48.412Z,12.17
2018-03-17T03:08:18.466Z,12.18
2018-03-17T03:10:50.777Z,12.16
2018-03-17T03:13:21.319Z,12.15
2018-03-17T03:15:50.409Z,12.15
2018-03-17T03:18:19.415Z,12.23
2018-03-17T03:20:49.241Z,12.24
2018-03-17T03:23:18.745Z,12.22
2018-03-17T03:25:50.662Z,12.30
2018-03-17T03:28:20.512Z,12.19
2018-03-17T03:30:51.239Z,12.16
2018-03-17T03:33:24.742Z,12.29
2018-03-17T03:35:56.561Z,12.26
2018-03-17T03:38:25.667Z,12.24
2018-03-17T03:40:56.429Z,12.29
2018-03-17T03:43:28.755Z,12.16
2018-03-17T03:45:58.197Z,12.06
2018-03-17T03:48:27.761Z,12.20
2018-03-17T03:50:57.028Z,12.11
2018-03-17T03:53:26.601Z,12.17
2018-03-17T03:55:59.202Z,12.00
2018-03-17T03:58:31.452Z,12.07
2018-03-17T04:01:00.834Z,12.19
2018-03-17T04:03:32.816Z,12.20
2018-03-17T04:06:02.532Z,12.23
2018-03-17T04:08:35.215Z,12.16
2018-03-17T04:11:10.220Z,12.19
2018-03-17T04:13:43.114Z,12.27
2018-03-17T04:16:12.490Z,12.20
2018-03-17T04:18:41.723Z,11.78
2018-03-17T04:21:11.301Z,12.11
2018-03-17T04:23:43.215Z,12.20
2018-03-17T04:26:13.120Z,12.16
2018-03-17T04:28:42.406Z,12.26
2018-03-17T04:31:17.133Z,11.78
2018-03-17T04:33:46.089Z,12.06
2018-03-17T04:36:15.506Z,12.10
2018-03-17T04:38:45.670Z,12.20
2018-03-17T04:41:18.315Z,12.24
2018-03-17T04:43:47.742Z,11.86
2018-03-17T04:46:17.250Z,11.91
2018-03-17T04:48:47.567Z,11.55
2018-03-17T04:51:20.200Z,11.81
2018-03-17T04:53:49.346Z,12.00
2018-03-17T04:56:19.096Z,12.08
2018-03-17T04:58:49.711Z,12.14
2018-03-17T05:01:23.707Z,11.93
2018-03-17T05:03:53.090Z,12.08
2018-03-17T05:06:24.457Z,12.18
2018-03-17T05:08:55.282Z,12.19
2018-03-17T05:11:28.105Z,12.18
2018-03-17T05:13:59.173Z,11.99
2018-03-17T05:16:30.110Z,12.04
2018-03-17T05:19:01.430Z,11.96
2018-03-17T05:21:30.587Z,12.16
2018-03-17T05:23:59.953Z,12.22
2018-03-17T05:26:29.160Z,11.62
2018-03-17T05:29:01.216Z,11.81
2018-03-17T05:31:30.490Z,11.99
2018-03-17T05:34:01.077Z,12.15
2018-03-17T05:36:30.785Z,12.31
2018-03-17T05:38:59.856Z,12.31
2018-03-17T05:41:30.607Z,12.24
2018-03-17T05:44:00.105Z,12.48
2018-03-17T05:46:34.990Z,12.54
2018-03-17T05:49:04.468Z,12.60
2018-03-17T05:51:33.939Z,12.67
2018-03-17T05:54:08.479Z,12.71
2018-03-17T05:56:38.513Z,12.71
2018-03-17T05:59:08.343Z,12.54
2018-03-17T06:01:41.629Z,12.68
2018-03-17T06:04:11.027Z,12.78
2018-03-17T06:06:42.608Z,12.82
2018-03-17T06:09:12.181Z,12.85
2018-03-17T06:11:41.849Z,12.97
2018-03-17T06:14:22.813Z,12.92
2018-03-17T06:16:53.848Z,12.90
2018-03-17T06:19:23.310Z,12.57
2018-03-17T06:21:52.375Z,12.73
2018-03-17T06:24:21.796Z,12.62
2018-03-17T06:26:51.432Z,12.78
2018-03-17T06:29:21.576Z,12.88
2018-03-17T06:31:50.763Z,12.98
2018-03-17T06:34:21.174Z,13.00
2018-03-17T06:36:54.764Z,13.01
2018-03-17T06:39:25.834Z,13.12
2018-03-17T06:41:57.493Z,13.21
2018-03-17T06:44:27.770Z,13.25
2018-03-17T06:46:57.136Z,13.28
2018-03-17T06:49:27.745Z,13.36
2018-03-17T06:51:57.266Z,13.26
2018-03-17T06:54:26.663Z,13.36
2018-03-17T06:56:57.844Z,13.49
2018-03-17T06:59:27.971Z,13.50
2018-03-17T07:01:57.892Z,13.38
2018-03-17T07:04:27.378Z,13.38
2018-03-17T07:06:56.753Z,13.41
2018-03-17T07:09:26.716Z,13.70
2018-03-17T07:11:57.141Z,13.63
2018-03-17T07:14:28.237Z,13.69
2018-03-17T07:17:01.807Z,13.78
2018-03-17T07:19:32.448Z,13.87
2018-03-17T07:22:04.825Z,13.88
2018-03-17T07:24:35.360Z,13.88
2018-03-17T07:27:07.328Z,13.98
2018-03-17T07:29:38.523Z,13.96
2018-03-17T07:32:08.442Z,14.04
2018-03-17T07:34:38.932Z,14.13
2018-03-17T07:37:08.953Z,14.06
2018-03-17T07:39:39.739Z,14.10
2018-03-17T07:42:09.950Z,14.29
2018-03-17T07:44:40.060Z,14.18
2018-03-17T07:47:09.157Z,14.06
2018-03-17T07:49:38.543Z,14.08
2018-03-17T07:52:08.407Z,14.10
2018-03-17T07:54:41.330Z,14.31
2018-03-17T07:57:10.613Z,14.28
2018-03-17T07:59:39.834Z,14.32
2018-03-17T08:02:09.652Z,14.46
2018-03-17T08:04:40.206Z,14.47
2018-03-17T08:07:10.362Z,14.41
2018-03-17T08:09:42.417Z,14.44
2018-03-17T08:12:11.725Z,14.46
2018-03-17T08:14:42.696Z,14.70
2018-03-17T08:17:15.895Z,14.74
2018-03-17T08:19:45.358Z,14.74
2018-03-17T08:22:16.698Z,14.75
2018-03-17T08:24:46.335Z,14.91
2018-03-17T08:27:15.393Z,14.94
2018-03-17T08:29:44.591Z,15.03
2018-03-17T08:32:14.440Z,15.18
2018-03-17T08:34:43.550Z,15.33
2018-03-17T08:37:12.897Z,15.21
2018-03-17T08:39:42.818Z,15.52
2018-03-17T08:42:12.439Z,15.51
2018-03-17T08:44:41.399Z,15.59
2018-03-17T08:47:11.007Z,15.66
2018-03-17T08:49:40.017Z,15.93
2018-03-17T08:52:09.238Z,16.15
2018-03-17T08:54:38.378Z,16.00
2018-03-17T08:57:07.856Z,16.12
2018-03-17T08:59:38.227Z,16.32
2018-03-17T09:02:08.103Z,16.24
2018-03-17T09:04:37.311Z,16.31
2018-03-17T09:07:07.906Z,16.32
2018-03-17T09:09:38.347Z,16.47
2018-03-17T09:12:07.866Z,16.41
2018-03-17T09:14:37.867Z,16.42
2018-03-17T09:17:07.180Z,16.61
2018-03-17T09:19:39.316Z,16.81
2018-03-17T09:22:09.040Z,17.03
2018-03-17T09:24:38.645Z,16.91
2018-03-17T09:27:08.356Z,16.91
2018-03-17T09:29:39.946Z,16.95
2018-03-17T09:32:08.735Z,17.02
2018-03-17T09:34:37.955Z,17.21
2018-03-17T09:37:06.762Z,17.32
2018-03-17T09:39:36.113Z,17.34
2018-03-17T09:42:05.945Z,17.48
2018-03-17T09:44:38.137Z,17.55
2018-03-17T09:47:07.355Z,17.59
2018-03-17T09:49:36.637Z,17.67
2018-03-17T09:52:05.688Z,17.73
2018-03-17T09:54:35.819Z,17.84
2018-03-17T09:57:05.236Z,17.87
2018-03-17T09:59:34.693Z,17.91
2018-03-17T10:02:05.964Z,17.96
2018-03-17T10:04:34.837Z,18.08
2018-03-17T10:07:04.796Z,18.07
2018-03-17T10:09:33.797Z,17.96
2018-03-17T10:12:04.555Z,18.19
2018-03-17T10:14:33.570Z,18.15
2018-03-17T10:17:02.932Z,18.15
2018-03-17T10:19:32.267Z,18.19
2018-03-17T10:22:03.453Z,18.21
2018-03-17T10:24:32.230Z,18.35
2018-03-17T10:27:02.555Z,18.46
2018-03-17T10:29:31.915Z,18.40
2018-03-17T10:32:02.622Z,18.43
2018-03-17T10:34:31.799Z,18.61
2018-03-17T10:37:01.376Z,18.67
2018-03-17T10:39:30.559Z,18.64
2018-03-17T10:41:59.397Z,18.72
2018-03-17T10:48:03.444Z,18.68
2018-03-17T10:50:36.407Z,18.77
2018-03-17T10:53:05.710Z,18.67
2018-03-17T10:55:35.297Z,18.69
2018-03-17T10:58:05.591Z,18.79
2018-03-17T11:00:35.222Z,19.31
2018-03-17T11:03:05.218Z,19.22
2018-03-17T11:05:34.965Z,19.14
2018-03-17T11:08:04.315Z,19.33
2018-03-17T11:10:36.531Z,19.53
2018-03-17T11:13:06.038Z,19.45
2018-03-17T11:15:36.000Z,19.52
2018-03-17T11:18:04.848Z,19.32
